Rechercher aéroport 
image banner adimage banner adimage banner ad
image banner ad

9PS4 - Pheasant Run

Situé à Easton-Forks Township, United States

ICAO - 9PS4, IATA -

Données fournies par Airmate  

Information générale

Coordonnées: N40°44'58" W75°12'37"
Élévation : 400 feet MSL.
Variation magnétique : -12° East
Voir autres Aéroports à Pennsylvania

Données opérationnelles

Special qualification required
Heure actuelle UTC:
Heure actuelle locale:
Météo à : KABE - Lehigh Valley Intl ( 22 km )
METAR: KABE 152051Z 29008KT 10SM FEW044 FEW095 22/13 A2979 RMK AO2 SLP086 60000 T02220133 51002 $
TAF: KABE 151720Z 1518/1618 31011KT P6SM BKN050 FM152300 31004KT P6SM SCT050 FM161400 32009KT P6SM FEW050
Voir NOTAMs / SUP AIP / TFR affectant cet aéroport [VIEW]
Fréquences de communication: [VIEW]

Pistes:

Coordonnées de l'aéroport

Adresse: Easton-Forks Township United States

Vue satellite de 9PS4